sensor_id;sensor_type;location;lat;lon;timestamp;P1;durP1;ratioP1;P2;durP2;ratioP2
17193;SDS011;8713;48.388;10.928;2022-09-02T06:50:53;2.92;;;1.70;;
17193;SDS011;8713;48.388;10.928;2022-09-02T06:52:03;2.28;;;1.80;;
17193;SDS011;8713;48.388;10.928;2022-09-02T06:53:17;4.70;;;1.73;;
17193;SDS011;8713;48.388;10.928;2022-09-02T06:54:27;2.28;;;1.60;;
17193;SDS011;8713;48.388;10.928;2022-09-02T06:55:47;2.17;;;1.80;;
17193;SDS011;8713;48.388;10.928;2022-09-02T06:56:56;1.83;;;1.58;;
17193;SDS011;8713;48.388;10.928;2022-09-02T06:58:08;2.75;;;1.80;;
17193;SDS011;8713;48.388;10.928;2022-09-02T06:59:20;3.40;;;1.70;;
17193;SDS011;8713;48.388;10.928;2022-09-02T07:00:39;1.75;;;1.63;;
17193;SDS011;8713;48.388;10.928;2022-09-02T07:01:50;2.95;;;1.60;;
17193;SDS011;8713;48.388;10.928;2022-09-02T07:03:02;3.28;;;1.67;;
17193;SDS011;8713;48.388;10.928;2022-09-02T07:04:31;4.82;;;1.52;;
17193;SDS011;8713;48.388;10.928;2022-09-02T07:06:06;2.45;;;2.00;;
17193;SDS011;8713;48.388;10.928;2022-09-02T07:07:19;2.30;;;1.52;;
17193;SDS011;8713;48.388;10.928;2022-09-02T07:08:41;2.85;;;1.80;;
17193;SDS011;8713;48.388;10.928;2022-09-02T07:09:51;3.80;;;1.65;;
17193;SDS011;8713;48.388;10.928;2022-09-02T07:11:02;3.03;;;1.60;;
17193;SDS011;8713;48.388;10.928;2022-09-02T07:12:13;2.10;;;1.48;;
17193;SDS011;8713;48.388;10.928;2022-09-02T07:13:30;3.70;;;1.88;;
17193;SDS011;8713;48.388;10.928;2022-09-02T07:14:41;3.58;;;1.67;;
17193;SDS011;8713;48.388;10.928;2022-09-02T07:15:52;1.83;;;1.40;;
17193;SDS011;8713;48.388;10.928;2022-09-02T07:17:02;5.10;;;1.50;;
17193;SDS011;8713;48.388;10.928;2022-09-02T07:18:14;2.55;;;1.30;;
17193;SDS011;8713;48.388;10.928;2022-09-02T07:19:23;2.47;;;1.33;;
17193;SDS011;8713;48.388;10.928;2022-09-02T07:20:33;2.15;;;1.48;;
17193;SDS011;8713;48.388;10.928;2022-09-02T07:21:44;2.53;;;1.63;;
17193;SDS011;8713;48.388;10.928;2022-09-02T07:22:55;3.35;;;1.40;;
17193;SDS011;8713;48.388;10.928;2022-09-02T07:24:06;2.50;;;1.40;;
17193;SDS011;8713;48.388;10.928;2022-09-02T07:25:17;1.77;;;1.35;;
17193;SDS011;8713;48.388;10.928;2022-09-02T07:26:27;1.63;;;1.40;;
17193;SDS011;8713;48.388;10.928;2022-09-02T07:27:37;2.35;;;1.45;;
17193;SDS011;8713;48.388;10.928;2022-09-02T07:28:47;2.05;;;1.40;;
17193;SDS011;8713;48.388;10.928;2022-09-02T07:29:56;2.50;;;1.50;;
17193;SDS011;8713;48.388;10.928;2022-09-02T07:31:07;4.25;;;1.38;;
17193;SDS011;8713;48.388;10.928;2022-09-02T07:32:18;3.13;;;1.45;;
17193;SDS011;8713;48.388;10.928;2022-09-02T07:33:29;2.05;;;1.45;;
17193;SDS011;8713;48.388;10.928;2022-09-02T07:34:39;3.30;;;1.27;;
17193;SDS011;8713;48.388;10.928;2022-09-02T07:35:49;2.10;;;1.27;;
17193;SDS011;8713;48.388;10.928;2022-09-02T07:37:00;1.60;;;1.33;;
17193;SDS011;8713;48.388;10.928;2022-09-02T07:38:09;1.50;;;1.10;;
17193;SDS011;8713;48.388;10.928;2022-09-02T07:39:21;4.85;;;1.58;;
17193;SDS011;8713;48.388;10.928;2022-09-02T07:40:31;3.90;;;1.52;;
17193;SDS011;8713;48.388;10.928;2022-09-02T07:41:42;1.80;;;1.30;;
17193;SDS011;8713;48.388;10.928;2022-09-02T07:42:54;2.42;;;1.30;;
17193;SDS011;8713;48.388;10.928;2022-09-02T07:44:04;2.50;;;1.30;;
17193;SDS011;8713;48.388;10.928;2022-09-02T07:45:14;1.45;;;1.10;;
17193;SDS011;8713;48.388;10.928;2022-09-02T07:46:26;2.60;;;1.73;;
17193;SDS011;8713;48.388;10.928;2022-09-02T07:47:39;1.50;;;1.17;;
17193;SDS011;8713;48.388;10.928;2022-09-02T07:48:48;2.45;;;1.40;;
17193;SDS011;8713;48.388;10.928;2022-09-02T07:49:59;1.52;;;1.05;;
17193;SDS011;8713;48.388;10.928;2022-09-02T07:51:09;2.92;;;1.20;;
17193;SDS011;8713;48.388;10.928;2022-09-02T07:52:20;2.47;;;1.30;;
17193;SDS011;8713;48.388;10.928;2022-09-02T07:53:30;1.63;;;1.17;;
17193;SDS011;8713;48.388;10.928;2022-09-02T07:54:42;2.55;;;1.40;;
17193;SDS011;8713;48.388;10.928;2022-09-02T07:55:51;3.45;;;1.33;;
17193;SDS011;8713;48.388;10.928;2022-09-02T07:57:00;3.30;;;1.30;;
17193;SDS011;8713;48.388;10.928;2022-09-02T07:58:11;2.33;;;1.48;;
17193;SDS011;8713;48.388;10.928;2022-09-02T07:59:22;2.28;;;1.25;;
17193;SDS011;8713;48.388;10.928;2022-09-02T08:00:34;1.50;;;1.20;;
17193;SDS011;8713;48.388;10.928;2022-09-02T08:01:51;2.90;;;1.20;;
17193;SDS011;8713;48.388;10.928;2022-09-02T08:03:00;2.90;;;1.20;;
17193;SDS011;8713;48.388;10.928;2022-09-02T08:04:17;3.15;;;1.17;;
17193;SDS011;8713;48.388;10.928;2022-09-02T08:05:30;2.22;;;1.33;;
17193;SDS011;8713;48.388;10.928;2022-09-02T08:06:40;2.75;;;1.08;;
17193;SDS011;8713;48.388;10.928;2022-09-02T08:07:50;1.65;;;1.23;;
17193;SDS011;8713;48.388;10.928;2022-09-02T08:08:59;2.22;;;1.20;;
17193;SDS011;8713;48.388;10.928;2022-09-02T08:10:09;1.65;;;1.10;;
17193;SDS011;8713;48.388;10.928;2022-09-02T08:11:20;3.67;;;1.48;;
17193;SDS011;8713;48.388;10.928;2022-09-02T08:12:31;1.67;;;1.10;;
17193;SDS011;8713;48.388;10.928;2022-09-02T08:13:40;2.10;;;1.20;;
17193;SDS011;8713;48.388;10.928;2022-09-02T08:14:50;2.42;;;1.23;;
17193;SDS011;8713;48.388;10.928;2022-09-02T08:15:59;2.65;;;1.33;;
17193;SDS011;8713;48.388;10.928;2022-09-02T08:17:10;1.20;;;1.10;;
17193;SDS011;8713;48.388;10.928;2022-09-02T08:18:19;2.20;;;1.25;;
17193;SDS011;8713;48.388;10.928;2022-09-02T08:19:29;2.08;;;1.38;;
17193;SDS011;8713;48.388;10.928;2022-09-02T08:20:38;2.33;;;1.10;;
17193;SDS011;8713;48.388;10.928;2022-09-02T08:21:48;2.28;;;1.10;;
17193;SDS011;8713;48.388;10.928;2022-09-02T08:22:59;1.98;;;1.20;;
17193;SDS011;8713;48.388;10.928;2022-09-02T08:24:08;3.10;;;1.00;;
17193;SDS011;8713;48.388;10.928;2022-09-02T08:25:18;1.80;;;1.00;;
17193;SDS011;8713;48.388;10.928;2022-09-02T08:26:27;2.25;;;0.98;;
17193;SDS011;8713;48.388;10.928;2022-09-02T08:27:37;1.42;;;0.90;;
17193;SDS011;8713;48.388;10.928;2022-09-02T08:28:46;2.33;;;1.08;;
17193;SDS011;8713;48.388;10.928;2022-09-02T08:29:56;4.15;;;1.13;;
17193;SDS011;8713;48.388;10.928;2022-09-02T08:31:06;2.20;;;1.15;;
17193;SDS011;8713;48.388;10.928;2022-09-02T08:32:16;1.35;;;0.98;;
17193;SDS011;8713;48.388;10.928;2022-09-02T08:33:25;3.50;;;0.90;;
17193;SDS011;8713;48.388;10.928;2022-09-02T08:34:36;1.55;;;1.00;;
17193;SDS011;8713;48.388;10.928;2022-09-02T08:35:48;1.63;;;1.10;;
17193;SDS011;8713;48.388;10.928;2022-09-02T08:36:58;1.85;;;1.20;;
17193;SDS011;8713;48.388;10.928;2022-09-02T08:38:07;2.38;;;1.42;;
17193;SDS011;8713;48.388;10.928;2022-09-02T08:39:17;6.00;;;1.50;;
17193;SDS011;8713;48.388;10.928;2022-09-02T08:40:30;2.42;;;1.10;;
17193;SDS011;8713;48.388;10.928;2022-09-02T08:43:34;1.58;;;0.95;;
17193;SDS011;8713;48.388;10.928;2022-09-02T08:44:48;1.52;;;1.02;;
17193;SDS011;8713;48.388;10.928;2022-09-02T08:46:01;2.75;;;0.80;;
17193;SDS011;8713;48.388;10.928;2022-09-02T08:47:14;3.75;;;1.00;;
17193;SDS011;8713;48.388;10.928;2022-09-02T08:49:58;2.88;;;1.10;;
17193;SDS011;8713;48.388;10.928;2022-09-02T08:51:12;2.65;;;1.00;;
17193;SDS011;8713;48.388;10.928;2022-09-02T08:54:25;1.20;;;0.90;;
17193;SDS011;8713;48.388;10.928;2022-09-02T08:55:49;1.33;;;0.70;;
17193;SDS011;8713;48.388;10.928;2022-09-02T08:57:03;6.57;;;1.13;;
17193;SDS011;8713;48.388;10.928;2022-09-02T08:58:15;4.80;;;1.10;;
17193;SDS011;8713;48.388;10.928;2022-09-02T08:59:27;1.85;;;0.80;;
17193;SDS011;8713;48.388;10.928;2022-09-02T09:00:38;2.85;;;0.93;;
17193;SDS011;8713;48.388;10.928;2022-09-02T09:03:30;2.58;;;0.95;;
17193;SDS011;8713;48.388;10.928;2022-09-02T09:06:30;3.78;;;0.90;;
17193;SDS011;8713;48.388;10.928;2022-09-02T09:08:07;1.20;;;0.80;;
17193;SDS011;8713;48.388;10.928;2022-09-02T09:11:22;3.72;;;1.00;;
17193;SDS011;8713;48.388;10.928;2022-09-02T09:18:07;2.60;;;0.80;;
17193;SDS011;8713;48.388;10.928;2022-09-02T09:19:36;1.92;;;1.00;;
17193;SDS011;8713;48.388;10.928;2022-09-02T09:20:56;1.95;;;0.82;;
17193;SDS011;8713;48.388;10.928;2022-09-02T09:22:05;2.40;;;0.90;;
17193;SDS011;8713;48.388;10.928;2022-09-02T09:23:24;2.20;;;0.90;;
17193;SDS011;8713;48.388;10.928;2022-09-02T09:24:38;2.35;;;0.90;;
17193;SDS011;8713;48.388;10.928;2022-09-02T09:25:53;1.58;;;0.70;;
17193;SDS011;8713;48.388;10.928;2022-09-02T09:27:12;4.00;;;0.80;;
17193;SDS011;8713;48.388;10.928;2022-09-02T09:28:29;2.60;;;0.73;;
17193;SDS011;8713;48.388;10.928;2022-09-02T09:29:39;1.13;;;0.85;;
17193;SDS011;8713;48.388;10.928;2022-09-02T09:30:48;1.55;;;0.70;;
17193;SDS011;8713;48.388;10.928;2022-09-02T09:31:58;2.25;;;0.85;;
17193;SDS011;8713;48.388;10.928;2022-09-02T09:33:08;1.52;;;0.90;;
17193;SDS011;8713;48.388;10.928;2022-09-02T09:34:24;2.10;;;0.90;;
17193;SDS011;8713;48.388;10.928;2022-09-02T09:36:05;3.03;;;0.88;;
17193;SDS011;8713;48.388;10.928;2022-09-02T09:37:26;1.20;;;0.70;;
17193;SDS011;8713;48.388;10.928;2022-09-02T09:38:56;1.88;;;0.70;;
17193;SDS011;8713;48.388;10.928;2022-09-02T09:41:28;3.00;;;1.08;;
17193;SDS011;8713;48.388;10.928;2022-09-02T09:42:37;1.50;;;0.90;;
17193;SDS011;8713;48.388;10.928;2022-09-02T09:43:47;2.33;;;0.80;;
17193;SDS011;8713;48.388;10.928;2022-09-02T09:44:56;1.50;;;0.70;;
17193;SDS011;8713;48.388;10.928;2022-09-02T09:46:26;3.15;;;0.90;;
17193;SDS011;8713;48.388;10.928;2022-09-02T09:47:39;2.97;;;1.00;;
17193;SDS011;8713;48.388;10.928;2022-09-02T09:48:50;2.85;;;0.90;;
17193;SDS011;8713;48.388;10.928;2022-09-02T09:50:11;1.52;;;0.68;;
17193;SDS011;8713;48.388;10.928;2022-09-02T09:51:26;1.10;;;0.60;;
17193;SDS011;8713;48.388;10.928;2022-09-02T09:52:35;3.13;;;0.85;;
17193;SDS011;8713;48.388;10.928;2022-09-02T09:53:46;1.50;;;0.85;;
17193;SDS011;8713;48.388;10.928;2022-09-02T09:55:06;3.72;;;1.25;;
17193;SDS011;8713;48.388;10.928;2022-09-02T09:56:26;1.63;;;0.90;;
17193;SDS011;8713;48.388;10.928;2022-09-02T09:57:39;1.20;;;0.90;;
17193;SDS011;8713;48.388;10.928;2022-09-02T09:58:50;1.20;;;0.85;;
17193;SDS011;8713;48.388;10.928;2022-09-02T10:00:00;1.00;;;0.70;;
17193;SDS011;8713;48.388;10.928;2022-09-02T10:02:34;3.63;;;0.70;;
17193;SDS011;8713;48.388;10.928;2022-09-02T10:03:49;2.95;;;0.93;;
17193;SDS011;8713;48.388;10.928;2022-09-02T10:05:16;5.47;;;1.10;;
17193;SDS011;8713;48.388;10.928;2022-09-02T10:06:39;1.58;;;0.65;;
17193;SDS011;8713;48.388;10.928;2022-09-02T10:07:55;2.15;;;0.70;;
17193;SDS011;8713;48.388;10.928;2022-09-02T10:09:31;1.40;;;0.70;;
17193;SDS011;8713;48.388;10.928;2022-09-02T10:10:55;2.20;;;0.70;;
17193;SDS011;8713;48.388;10.928;2022-09-02T10:12:11;1.45;;;0.90;;
17193;SDS011;8713;48.388;10.928;2022-09-02T10:13:22;1.20;;;0.80;;
17193;SDS011;8713;48.388;10.928;2022-09-02T10:14:36;0.90;;;0.60;;
17193;SDS011;8713;48.388;10.928;2022-09-02T10:20:43;1.55;;;0.68;;
17193;SDS011;8713;48.388;10.928;2022-09-02T10:24:07;2.70;;;0.80;;
17193;SDS011;8713;48.388;10.928;2022-09-02T10:27:02;0.93;;;0.70;;
17193;SDS011;8713;48.388;10.928;2022-09-02T10:30:13;3.40;;;0.75;;
17193;SDS011;8713;48.388;10.928;2022-09-02T10:42:57;2.75;;;0.77;;
17193;SDS011;8713;48.388;10.928;2022-09-02T10:45:46;1.83;;;0.73;;
17193;SDS011;8713;48.388;10.928;2022-09-02T10:47:02;1.63;;;0.80;;
17193;SDS011;8713;48.388;10.928;2022-09-02T10:48:24;2.40;;;0.75;;
17193;SDS011;8713;48.388;10.928;2022-09-02T10:49:59;1.73;;;1.00;;
17193;SDS011;8713;48.388;10.928;2022-09-02T10:51:41;2.35;;;0.70;;
17193;SDS011;8713;48.388;10.928;2022-09-02T10:56:28;2.38;;;0.63;;
17193;SDS011;8713;48.388;10.928;2022-09-02T10:59:13;0.80;;;0.70;;
17193;SDS011;8713;48.388;10.928;2022-09-02T11:00:28;0.77;;;0.70;;
17193;SDS011;8713;48.388;10.928;2022-09-02T11:03:38;2.85;;;0.70;;
17193;SDS011;8713;48.388;10.928;2022-09-02T11:06:12;1.02;;;0.70;;
17193;SDS011;8713;48.388;10.928;2022-09-02T11:07:43;2.83;;;0.70;;
17193;SDS011;8713;48.388;10.928;2022-09-02T11:09:02;1.60;;;0.80;;
17193;SDS011;8713;48.388;10.928;2022-09-02T11:10:34;2.75;;;0.75;;
17193;SDS011;8713;48.388;10.928;2022-09-02T11:16:20;4.10;;;0.70;;
17193;SDS011;8713;48.388;10.928;2022-09-02T11:17:53;1.52;;;0.70;;
17193;SDS011;8713;48.388;10.928;2022-09-02T11:19:16;2.97;;;0.82;;
17193;SDS011;8713;48.388;10.928;2022-09-02T11:20:34;2.22;;;0.60;;
17193;SDS011;8713;48.388;10.928;2022-09-02T11:22:14;2.38;;;0.73;;
17193;SDS011;8713;48.388;10.928;2022-09-02T11:25:31;3.60;;;0.80;;
17193;SDS011;8713;48.388;10.928;2022-09-02T11:28:31;1.02;;;0.70;;
17193;SDS011;8713;48.388;10.928;2022-09-02T11:31:25;2.63;;;0.80;;
17193;SDS011;8713;48.388;10.928;2022-09-02T11:33:10;2.00;;;0.93;;
17193;SDS011;8713;48.388;10.928;2022-09-02T11:35:42;1.20;;;0.65;;
17193;SDS011;8713;48.388;10.928;2022-09-02T11:36:52;1.25;;;0.70;;
17193;SDS011;8713;48.388;10.928;2022-09-02T11:39:37;0.70;;;0.60;;
17193;SDS011;8713;48.388;10.928;2022-09-02T11:41:03;1.30;;;0.85;;
17193;SDS011;8713;48.388;10.928;2022-09-02T11:47:55;1.50;;;0.80;;
17193;SDS011;8713;48.388;10.928;2022-09-02T11:52:06;3.30;;;0.85;;
17193;SDS011;8713;48.388;10.928;2022-09-02T11:54:47;1.02;;;0.63;;
17193;SDS011;8713;48.388;10.928;2022-09-02T11:56:19;0.90;;;0.60;;
17193;SDS011;8713;48.388;10.928;2022-09-02T11:57:42;0.90;;;0.70;;
17193;SDS011;8713;48.388;10.928;2022-09-02T11:59:02;1.35;;;0.77;;
17193;SDS011;8713;48.388;10.928;2022-09-02T12:00:57;3.10;;;0.85;;
17193;SDS011;8713;48.388;10.928;2022-09-02T12:02:06;2.95;;;0.70;;
17193;SDS011;8713;48.388;10.928;2022-09-02T12:03:16;0.70;;;0.70;;
17193;SDS011;8713;48.388;10.928;2022-09-02T12:04:33;4.00;;;0.80;;
17193;SDS011;8713;48.388;10.928;2022-09-02T12:05:44;2.50;;;0.70;;
17193;SDS011;8713;48.388;10.928;2022-09-02T12:09:43;1.63;;;0.60;;
17193;SDS011;8713;48.388;10.928;2022-09-02T12:10:58;0.80;;;0.70;;
17193;SDS011;8713;48.388;10.928;2022-09-02T12:13:45;0.77;;;0.70;;
17193;SDS011;8713;48.388;10.928;2022-09-02T12:20:06;2.50;;;0.70;;
17193;SDS011;8713;48.388;10.928;2022-09-02T12:21:26;1.40;;;0.68;;
17193;SDS011;8713;48.388;10.928;2022-09-02T12:22:38;1.02;;;0.68;;
17193;SDS011;8713;48.388;10.928;2022-09-02T12:25:00;1.63;;;0.90;;
17193;SDS011;8713;48.388;10.928;2022-09-02T12:26:11;3.00;;;1.10;;
17193;SDS011;8713;48.388;10.928;2022-09-02T12:27:34;2.25;;;0.85;;
17193;SDS011;8713;48.388;10.928;2022-09-02T12:28:49;2.25;;;0.80;;
17193;SDS011;8713;48.388;10.928;2022-09-02T12:30:00;0.85;;;0.65;;
17193;SDS011;8713;48.388;10.928;2022-09-02T12:31:10;1.80;;;0.70;;
17193;SDS011;8713;48.388;10.928;2022-09-02T12:33:54;1.30;;;0.70;;
17193;SDS011;8713;48.388;10.928;2022-09-02T12:35:07;1.80;;;0.88;;
17193;SDS011;8713;48.388;10.928;2022-09-02T12:40:39;3.92;;;0.70;;
17193;SDS011;8713;48.388;10.928;2022-09-02T12:43:26;0.90;;;0.60;;
17193;SDS011;8713;48.388;10.928;2022-09-02T12:45:03;1.75;;;0.73;;
17193;SDS011;8713;48.388;10.928;2022-09-02T12:46:32;2.70;;;0.77;;
17193;SDS011;8713;48.388;10.928;2022-09-02T12:49:32;1.73;;;0.70;;
17193;SDS011;8713;48.388;10.928;2022-09-02T12:50:56;0.82;;;0.70;;
17193;SDS011;8713;48.388;10.928;2022-09-02T12:53:45;1.35;;;0.70;;
17193;SDS011;8713;48.388;10.928;2022-09-02T12:54:57;1.25;;;0.77;;
17193;SDS011;8713;48.388;10.928;2022-09-02T12:56:19;1.25;;;0.80;;
17193;SDS011;8713;48.388;10.928;2022-09-02T12:57:41;2.55;;;0.85;;
17193;SDS011;8713;48.388;10.928;2022-09-02T12:58:54;1.17;;;0.80;;
17193;SDS011;8713;48.388;10.928;2022-09-02T13:00:05;1.17;;;0.70;;
17193;SDS011;8713;48.388;10.928;2022-09-02T13:01:28;1.35;;;0.70;;
17193;SDS011;8713;48.388;10.928;2022-09-02T13:04:31;2.35;;;0.65;;
17193;SDS011;8713;48.388;10.928;2022-09-02T13:09:10;1.40;;;0.90;;
17193;SDS011;8713;48.388;10.928;2022-09-02T13:14:18;1.58;;;0.75;;
17193;SDS011;8713;48.388;10.928;2022-09-02T13:26:20;0.85;;;0.70;;
17193;SDS011;8713;48.388;10.928;2022-09-02T13:33:22;0.80;;;0.60;;
17193;SDS011;8713;48.388;10.928;2022-09-02T13:34:31;0.63;;;0.50;;
17193;SDS011;8713;48.388;10.928;2022-09-02T13:35:41;1.38;;;0.63;;
17193;SDS011;8713;48.388;10.928;2022-09-02T13:36:50;1.05;;;0.70;;
17193;SDS011;8713;48.388;10.928;2022-09-02T13:38:00;0.93;;;0.57;;
17193;SDS011;8713;48.388;10.928;2022-09-02T13:39:19;1.10;;;0.60;;
17193;SDS011;8713;48.388;10.928;2022-09-02T13:40:34;1.83;;;0.80;;
17193;SDS011;8713;48.388;10.928;2022-09-02T13:41:45;1.42;;;0.70;;
17193;SDS011;8713;48.388;10.928;2022-09-02T13:42:55;2.50;;;0.80;;
17193;SDS011;8713;48.388;10.928;2022-09-02T13:44:34;0.80;;;0.70;;
17193;SDS011;8713;48.388;10.928;2022-09-02T13:45:44;1.85;;;0.73;;
17193;SDS011;8713;48.388;10.928;2022-09-02T13:47:02;1.00;;;0.57;;
17193;SDS011;8713;48.388;10.928;2022-09-02T13:49:30;2.60;;;0.80;;
17193;SDS011;8713;48.388;10.928;2022-09-02T13:50:44;0.90;;;0.70;;
17193;SDS011;8713;48.388;10.928;2022-09-02T13:51:58;3.38;;;0.70;;
17193;SDS011;8713;48.388;10.928;2022-09-02T13:53:08;0.90;;;0.60;;
17193;SDS011;8713;48.388;10.928;2022-09-02T13:54:30;1.05;;;0.68;;
17193;SDS011;8713;48.388;10.928;2022-09-02T13:55:49;0.88;;;0.70;;
17193;SDS011;8713;48.388;10.928;2022-09-02T13:57:10;1.77;;;0.90;;
17193;SDS011;8713;48.388;10.928;2022-09-02T13:59:46;1.73;;;0.65;;
17193;SDS011;8713;48.388;10.928;2022-09-02T14:01:08;1.23;;;0.77;;
17193;SDS011;8713;48.388;10.928;2022-09-02T14:02:53;2.83;;;0.82;;
17193;SDS011;8713;48.388;10.928;2022-09-02T14:04:08;1.27;;;0.90;;
17193;SDS011;8713;48.388;10.928;2022-09-02T14:05:20;1.20;;;0.70;;
17193;SDS011;8713;48.388;10.928;2022-09-02T14:06:32;1.20;;;0.75;;
17193;SDS011;8713;48.388;10.928;2022-09-02T14:07:49;1.42;;;0.93;;
17193;SDS011;8713;48.388;10.928;2022-09-02T14:09:02;1.45;;;0.90;;
17193;SDS011;8713;48.388;10.928;2022-09-02T14:10:15;0.77;;;0.60;;
17193;SDS011;8713;48.388;10.928;2022-09-02T14:11:27;1.25;;;0.73;;
17193;SDS011;8713;48.388;10.928;2022-09-02T14:12:38;3.80;;;1.10;;
17193;SDS011;8713;48.388;10.928;2022-09-02T14:13:48;1.52;;;0.80;;
17193;SDS011;8713;48.388;10.928;2022-09-02T14:14:58;1.77;;;0.85;;
17193;SDS011;8713;48.388;10.928;2022-09-02T14:17:41;2.78;;;0.70;;
17193;SDS011;8713;48.388;10.928;2022-09-02T14:19:09;1.10;;;0.80;;
17193;SDS011;8713;48.388;10.928;2022-09-02T14:20:31;0.82;;;0.68;;
17193;SDS011;8713;48.388;10.928;2022-09-02T14:21:58;3.83;;;0.80;;
17193;SDS011;8713;48.388;10.928;2022-09-02T14:23:12;2.05;;;0.70;;
17193;SDS011;8713;48.388;10.928;2022-09-02T14:24:25;1.27;;;0.60;;
17193;SDS011;8713;48.388;10.928;2022-09-02T14:25:39;1.15;;;0.73;;
17193;SDS011;8713;48.388;10.928;2022-09-02T14:26:59;2.47;;;0.80;;
17193;SDS011;8713;48.388;10.928;2022-09-02T14:28:10;1.83;;;0.63;;
17193;SDS011;8713;48.388;10.928;2022-09-02T14:29:28;1.13;;;0.95;;
17193;SDS011;8713;48.388;10.928;2022-09-02T14:30:41;1.83;;;0.80;;
17193;SDS011;8713;48.388;10.928;2022-09-02T14:33:38;1.95;;;0.80;;
17193;SDS011;8713;48.388;10.928;2022-09-02T14:35:07;1.20;;;0.65;;
17193;SDS011;8713;48.388;10.928;2022-09-02T14:36:30;1.40;;;0.80;;
17193;SDS011;8713;48.388;10.928;2022-09-02T14:37:49;2.35;;;0.80;;
17193;SDS011;8713;48.388;10.928;2022-09-02T14:40:32;0.95;;;0.60;;
17193;SDS011;8713;48.388;10.928;2022-09-02T14:41:44;1.20;;;0.90;;
17193;SDS011;8713;48.388;10.928;2022-09-02T14:42:59;2.40;;;0.90;;
17193;SDS011;8713;48.388;10.928;2022-09-02T14:45:44;3.55;;;1.10;;
17193;SDS011;8713;48.388;10.928;2022-09-02T14:46:57;2.13;;;0.70;;
17193;SDS011;8713;48.388;10.928;2022-09-02T14:48:23;1.13;;;0.88;;
17193;SDS011;8713;48.388;10.928;2022-09-02T14:51:06;0.90;;;0.80;;
17193;SDS011;8713;48.388;10.928;2022-09-02T14:52:20;2.20;;;0.73;;
17193;SDS011;8713;48.388;10.928;2022-09-02T14:53:33;0.65;;;0.60;;
17193;SDS011;8713;48.388;10.928;2022-09-02T14:54:46;0.98;;;0.70;;
17193;SDS011;8713;48.388;10.928;2022-09-02T14:55:57;1.05;;;0.70;;
17193;SDS011;8713;48.388;10.928;2022-09-02T14:57:40;0.77;;;0.70;;
17193;SDS011;8713;48.388;10.928;2022-09-02T14:58:43;1.05;;;0.70;;
17193;SDS011;8713;48.388;10.928;2022-09-02T14:59:53;1.52;;;0.82;;
17193;SDS011;8713;48.388;10.928;2022-09-02T15:01:18;2.92;;;0.80;;
17193;SDS011;8713;48.388;10.928;2022-09-02T15:02:29;1.75;;;0.60;;
17193;SDS011;8713;48.388;10.928;2022-09-02T15:03:40;2.15;;;0.60;;
17193;SDS011;8713;48.388;10.928;2022-09-02T15:04:55;3.53;;;0.90;;
17193;SDS011;8713;48.388;10.928;2022-09-02T15:06:09;0.93;;;0.70;;
17193;SDS011;8713;48.388;10.928;2022-09-02T15:07:18;2.05;;;0.80;;
17193;SDS011;8713;48.388;10.928;2022-09-02T15:08:28;1.38;;;0.85;;
17193;SDS011;8713;48.388;10.928;2022-09-02T15:09:37;1.63;;;0.80;;
17193;SDS011;8713;48.388;10.928;2022-09-02T15:10:48;1.40;;;1.00;;
17193;SDS011;8713;48.388;10.928;2022-09-02T15:11:59;2.17;;;0.80;;
17193;SDS011;8713;48.388;10.928;2022-09-02T15:13:08;0.95;;;0.80;;
17193;SDS011;8713;48.388;10.928;2022-09-02T15:14:20;2.67;;;0.90;;
17193;SDS011;8713;48.388;10.928;2022-09-02T15:15:29;1.70;;;0.77;;
17193;SDS011;8713;48.388;10.928;2022-09-02T15:16:39;2.42;;;0.80;;
17193;SDS011;8713;48.388;10.928;2022-09-02T15:17:48;1.50;;;0.80;;
17193;SDS011;8713;48.388;10.928;2022-09-02T15:18:58;1.00;;;0.70;;
17193;SDS011;8713;48.388;10.928;2022-09-02T15:20:08;1.75;;;0.80;;
17193;SDS011;8713;48.388;10.928;2022-09-02T15:21:18;2.17;;;0.85;;
17193;SDS011;8713;48.388;10.928;2022-09-02T15:22:27;1.23;;;0.90;;
17193;SDS011;8713;48.388;10.928;2022-09-02T15:23:38;1.63;;;0.90;;
17193;SDS011;8713;48.388;10.928;2022-09-02T15:24:48;3.70;;;0.70;;
17193;SDS011;8713;48.388;10.928;2022-09-02T15:25:58;1.33;;;0.90;;
17193;SDS011;8713;48.388;10.928;2022-09-02T15:27:08;1.25;;;0.60;;
17193;SDS011;8713;48.388;10.928;2022-09-02T15:28:18;2.42;;;0.80;;
17193;SDS011;8713;48.388;10.928;2022-09-02T15:29:28;1.67;;;0.70;;
17193;SDS011;8713;48.388;10.928;2022-09-02T15:30:37;1.33;;;0.80;;
17193;SDS011;8713;48.388;10.928;2022-09-02T15:31:50;1.20;;;0.80;;
17193;SDS011;8713;48.388;10.928;2022-09-02T15:33:03;1.52;;;0.90;;
17193;SDS011;8713;48.388;10.928;2022-09-02T15:34:14;0.73;;;0.73;;
17193;SDS011;8713;48.388;10.928;2022-09-02T15:35:24;0.70;;;0.70;;
17193;SDS011;8713;48.388;10.928;2022-09-02T15:36:33;1.48;;;0.70;;
17193;SDS011;8713;48.388;10.928;2022-09-02T15:37:43;4.60;;;0.90;;
17193;SDS011;8713;48.388;10.928;2022-09-02T15:38:55;0.98;;;0.80;;
17193;SDS011;8713;48.388;10.928;2022-09-02T15:40:05;1.70;;;0.65;;
17193;SDS011;8713;48.388;10.928;2022-09-02T15:41:17;1.42;;;0.77;;
17193;SDS011;8713;48.388;10.928;2022-09-02T15:42:29;0.90;;;0.70;;
17193;SDS011;8713;48.388;10.928;2022-09-02T15:43:38;2.65;;;0.85;;
17193;SDS011;8713;48.388;10.928;2022-09-02T15:44:48;2.53;;;0.80;;
17193;SDS011;8713;48.388;10.928;2022-09-02T15:45:57;5.82;;;1.25;;
17193;SDS011;8713;48.388;10.928;2022-09-02T15:47:07;1.10;;;0.65;;
17193;SDS011;8713;48.388;10.928;2022-09-02T15:48:16;1.98;;;0.82;;
17193;SDS011;8713;48.388;10.928;2022-09-02T15:49:26;1.45;;;0.80;;
17193;SDS011;8713;48.388;10.928;2022-09-02T15:50:35;1.92;;;0.90;;
17193;SDS011;8713;48.388;10.928;2022-09-02T15:51:45;1.48;;;0.60;;
17193;SDS011;8713;48.388;10.928;2022-09-02T15:52:57;1.63;;;0.70;;
17193;SDS011;8713;48.388;10.928;2022-09-02T15:54:07;2.15;;;0.80;;
17193;SDS011;8713;48.388;10.928;2022-09-02T15:55:18;1.95;;;0.70;;
17193;SDS011;8713;48.388;10.928;2022-09-02T15:56:29;1.85;;;0.90;;
17193;SDS011;8713;48.388;10.928;2022-09-02T15:57:40;3.72;;;0.70;;
17193;SDS011;8713;48.388;10.928;2022-09-02T15:58:53;2.70;;;0.80;;
17193;SDS011;8713;48.388;10.928;2022-09-02T16:00:17;2.50;;;0.85;;
17193;SDS011;8713;48.388;10.928;2022-09-02T16:01:31;1.65;;;0.70;;
17193;SDS011;8713;48.388;10.928;2022-09-02T16:02:42;2.83;;;0.77;;
17193;SDS011;8713;48.388;10.928;2022-09-02T16:03:51;3.30;;;0.90;;
17193;SDS011;8713;48.388;10.928;2022-09-02T16:05:01;2.05;;;0.70;;
17193;SDS011;8713;48.388;10.928;2022-09-02T16:06:10;1.45;;;0.70;;
17193;SDS011;8713;48.388;10.928;2022-09-02T16:07:20;0.80;;;0.60;;
17193;SDS011;8713;48.388;10.928;2022-09-02T16:08:30;1.85;;;0.70;;
17193;SDS011;8713;48.388;10.928;2022-09-02T16:09:39;0.82;;;0.60;;
17193;SDS011;8713;48.388;10.928;2022-09-02T16:10:49;3.20;;;0.80;;
17193;SDS011;8713;48.388;10.928;2022-09-02T16:11:58;1.83;;;0.80;;
17193;SDS011;8713;48.388;10.928;2022-09-02T16:13:08;3.05;;;0.65;;
17193;SDS011;8713;48.388;10.928;2022-09-02T16:14:17;1.40;;;0.80;;
17193;SDS011;8713;48.388;10.928;2022-09-02T16:15:27;1.08;;;0.70;;
17193;SDS011;8713;48.388;10.928;2022-09-02T16:16:38;3.15;;;0.70;;
17193;SDS011;8713;48.388;10.928;2022-09-02T16:17:47;1.08;;;0.70;;
17193;SDS011;8713;48.388;10.928;2022-09-02T16:18:58;2.97;;;0.90;;
17193;SDS011;8713;48.388;10.928;2022-09-02T16:20:08;1.00;;;0.73;;
17193;SDS011;8713;48.388;10.928;2022-09-02T16:21:18;0.55;;;0.52;;
17193;SDS011;8713;48.388;10.928;2022-09-02T16:22:28;1.67;;;0.80;;
17193;SDS011;8713;48.388;10.928;2022-09-02T16:23:38;4.45;;;0.82;;
17193;SDS011;8713;48.388;10.928;2022-09-02T16:24:47;2.13;;;0.60;;
17193;SDS011;8713;48.388;10.928;2022-09-02T16:27:36;1.98;;;0.73;;
17193;SDS011;8713;48.388;10.928;2022-09-02T16:29:09;1.77;;;0.70;;
17193;SDS011;8713;48.388;10.928;2022-09-02T16:30:24;1.10;;;0.68;;
17193;SDS011;8713;48.388;10.928;2022-09-02T16:31:34;0.73;;;0.68;;